Time;durP1;ratioP1;P1;durP2;ratioP2;P2;SDS_P1;SDS_P2;PMS_P1;PMS_P2;Temp;Humidity;BMP_temperature;BMP_pressure;BME280_temperature;BME280_humidity;BME280_pressure;Samples;Min_cycle;Max_cycle;Signal;HPM_P1;HPM_P2
2023/04/11 00:00:37;;;;;;;8.60;7.33;;;13.20;82.60;;;;;;5050309;28;20473;-46
2023/04/11 00:03:05;;;;;;;9.80;8.47;;;13.20;82.70;;;;;;5051583;28;20431;-45
2023/04/11 00:05:32;;;;;;;8.50;7.60;;;13.40;83.70;;;;;;5054409;28;20469;-45
2023/04/11 00:07:59;;;;;;;9.13;8.20;;;12.90;82.50;;;;;;5055771;28;20442;-45
2023/04/11 00:10:27;;;;;;;9.80;8.87;;;12.80;82.60;;;;;;5055448;28;20449;-45
2023/04/11 00:12:55;;;;;;;8.53;7.73;;;13.40;83.30;;;;;;5055662;28;20436;-44
2023/04/11 00:15:23;;;;;;;8.83;7.93;;;12.50;82.40;;;;;;5056088;28;20545;-45
2023/04/11 00:17:52;;;;;;;9.30;8.40;;;13.00;82.90;;;;;;5055544;28;20433;-45
2023/04/11 00:20:19;;;;;;;11.50;8.63;;;13.00;83.10;;;;;;5055368;28;20573;-45
2023/04/11 00:22:45;;;;;;;8.63;7.73;;;13.10;83.30;;;;;;5055852;28;20434;-45
2023/04/11 00:25:12;;;;;;;8.80;7.90;;;12.90;83.00;;;;;;5055862;28;20457;-45
2023/04/11 00:27:40;;;;;;;9.30;8.30;;;13.40;83.50;;;;;;5056279;28;20432;-46
2023/04/11 00:30:08;;;;;;;9.33;8.43;;;13.40;83.60;;;;;;5054647;28;20452;-45
2023/04/11 00:32:34;;;;;;;8.97;7.57;;;13.10;83.30;;;;;;5056890;28;20787;-46
2023/04/11 00:35:01;;;;;;;9.03;8.13;;;13.30;83.50;;;;;;5056772;28;20437;-46
2023/04/11 00:37:28;;;;;;;9.43;8.40;;;12.80;83.00;;;;;;5056597;28;20450;-45
2023/04/11 00:39:56;;;;;;;8.57;7.67;;;13.30;83.50;;;;;;5054891;28;20455;-46
2023/04/11 00:42:22;;;;;;;9.00;8.10;;;12.90;83.10;;;;;;5056252;28;20440;-45
2023/04/11 00:44:52;;;;;;;8.37;7.57;;;13.10;83.40;;;;;;5055503;28;20492;-45
2023/04/11 00:47:18;;;;;;;9.00;7.83;;;13.10;83.40;;;;;;5054885;28;20807;-45
2023/04/11 00:49:46;;;;;;;9.37;8.47;;;13.10;83.50;;;;;;5054588;28;20931;-45
2023/04/11 00:52:12;;;;;;;9.27;8.23;;;12.80;83.10;;;;;;5054780;28;20921;-45
2023/04/11 00:54:39;;;;;;;9.10;8.20;;;13.10;83.50;;;;;;5053249;28;20454;-45
2023/04/11 00:57:08;;;;;;;11.60;7.70;;;12.80;83.40;;;;;;5054575;28;20453;-46
2023/04/11 00:59:35;;;;;;;9.50;8.17;;;12.70;83.30;;;;;;5052984;28;20450;-45
2023/04/11 01:02:03;;;;;;;8.73;7.83;;;12.20;82.70;;;;;;5053315;28;20532;-45
2023/04/11 01:04:29;;;;;;;8.10;7.30;;;12.70;83.50;;;;;;5053153;28;20445;-45
2023/04/11 01:07:02;;;;;;;8.33;7.43;;;12.70;83.50;;;;;;5054416;28;20434;-46
2023/04/11 01:09:30;;;;;;;9.30;8.40;;;12.60;83.40;;;;;;5054010;28;20436;-46
2023/04/11 01:11:57;;;;;;;9.23;8.30;;;12.60;83.50;;;;;;5053082;28;20961;-45
2023/04/11 01:14:25;;;;;;;8.73;7.83;;;12.70;83.60;;;;;;5054587;28;20564;-46
2023/04/11 01:16:55;;;;;;;9.23;8.00;;;13.00;84.20;;;;;;5054043;28;20432;-45
2023/04/11 01:19:25;;;;;;;10.73;7.47;;;12.90;84.00;;;;;;5052802;28;20443;-45
2023/04/11 01:21:55;;;;;;;10.50;8.10;;;13.00;84.30;;;;;;5054025;28;20481;-45
2023/04/11 01:24:23;;;;;;;23.53;8.70;;;13.10;84.50;;;;;;5054283;28;21079;-46
2023/04/11 01:26:50;;;;;;;8.10;7.30;;;12.20;83.60;;;;;;5052759;28;20489;-46
2023/04/11 01:29:17;;;;;;;9.50;8.60;;;12.80;84.40;;;;;;5052449;28;20461;-45
2023/04/11 01:31:45;;;;;;;9.33;8.33;;;13.20;84.80;;;;;;5052820;28;20421;-45
2023/04/11 01:34:14;;;;;;;13.27;8.33;;;12.70;84.30;;;;;;5052660;28;20977;-45
2023/04/11 01:36:42;;;;;;;9.70;8.70;;;12.50;84.10;;;;;;5054260;28;20556;-46
2023/04/11 01:39:08;;;;;;;8.10;7.30;;;12.60;84.20;;;;;;5053613;28;20434;-45
2023/04/11 01:41:38;;;;;;;9.13;8.23;;;13.10;84.90;;;;;;5053688;28;20972;-46
2023/04/11 01:44:05;;;;;;;8.40;7.07;;;13.10;85.00;;;;;;5053715;28;20406;-46
2023/04/11 01:46:32;;;;;;;10.17;9.07;;;12.50;84.50;;;;;;5052476;28;20446;-46
2023/04/11 01:48:59;;;;;;;8.80;7.90;;;12.50;84.40;;;;;;5052054;28;20448;-46
2023/04/11 01:51:27;;;;;;;8.80;7.90;;;12.80;84.80;;;;;;5054187;28;20844;-46
2023/04/11 01:53:53;;;;;;;10.73;8.77;;;12.40;84.40;;;;;;5052244;28;20449;-45
2023/04/11 01:56:20;;;;;;;8.60;7.70;;;12.50;84.50;;;;;;5052637;28;20490;-44
2023/04/11 01:58:48;;;;;;;10.30;8.77;;;12.60;84.70;;;;;;5051927;28;20980;-43
2023/04/11 02:01:17;;;;;;;11.57;8.30;;;12.50;84.70;;;;;;5051977;28;20484;-43
2023/04/11 02:03:44;;;;;;;9.30;8.20;;;12.80;85.00;;;;;;5052067;28;20448;-42
2023/04/11 02:06:11;;;;;;;8.77;7.87;;;12.10;84.30;;;;;;5052423;28;20485;-42
2023/04/11 02:08:37;;;;;;;9.23;8.33;;;12.60;84.80;;;;;;5053050;28;20438;-47
2023/04/11 02:11:06;;;;;;;9.20;8.20;;;12.50;84.70;;;;;;5053341;28;20415;-43
2023/04/11 02:13:33;;;;;;;8.83;7.93;;;12.60;85.00;;;;;;5052203;28;20788;-42
2023/04/11 02:16:06;;;;;;;11.60;8.23;;;12.80;85.20;;;;;;5051975;28;20462;-43
2023/04/11 02:18:33;;;;;;;9.40;8.37;;;12.20;84.50;;;;;;5051541;28;20624;-43
2023/04/11 02:21:00;;;;;;;8.93;7.73;;;12.60;85.20;;;;;;5051801;28;20455;-46
2023/04/11 02:23:27;;;;;;;9.80;8.17;;;12.40;85.00;;;;;;5051992;28;20451;-44
2023/04/11 02:25:54;;;;;;;8.83;8.03;;;12.50;85.20;;;;;;5051901;28;20478;-44
2023/04/11 02:28:21;;;;;;;8.83;7.93;;;12.60;85.40;;;;;;5050702;28;20860;-43
2023/04/11 02:30:48;;;;;;;9.43;8.20;;;12.40;85.20;;;;;;5051765;28;20741;-44
2023/04/11 02:33:16;;;;;;;9.73;8.20;;;12.90;86.00;;;;;;5051779;28;20976;-44
2023/04/11 02:35:43;;;;;;;11.70;9.07;;;12.00;85.10;;;;;;5051416;28;20477;-45
2023/04/11 02:38:09;;;;;;;10.90;9.00;;;12.10;85.30;;;;;;5052493;28;20495;-44
2023/04/11 02:40:36;;;;;;;8.37;7.57;;;12.90;86.40;;;;;;5051542;28;20981;-45
2023/04/11 02:43:03;;;;;;;10.27;9.17;;;12.10;85.70;;;;;;5052814;28;20469;-45
2023/04/11 02:45:30;;;;;;;10.53;8.60;;;12.00;85.60;;;;;;5051315;28;20483;-46
2023/04/11 02:47:57;;;;;;;9.70;8.00;;;12.40;86.30;;;;;;5051552;28;20450;-43
2023/04/11 02:50:25;;;;;;;9.20;7.80;;;12.40;86.50;;;;;;5051541;28;20424;-43
2023/04/11 02:52:53;;;;;;;9.10;8.20;;;12.30;86.40;;;;;;5052760;28;20428;-44
2023/04/11 02:55:24;;;;;;;10.50;9.40;;;12.50;86.60;;;;;;5051388;28;20484;-43
2023/04/11 02:57:51;;;;;;;9.30;8.37;;;12.40;86.80;;;;;;5052625;28;20438;-44
2023/04/11 03:00:20;;;;;;;8.70;7.80;;;12.60;87.10;;;;;;5051364;28;20465;-43
2023/04/11 03:02:56;;;;;;;9.47;8.30;;;12.20;86.60;;;;;;5052114;28;20557;-44
2023/04/11 03:05:25;;;;;;;9.00;8.10;;;12.20;86.80;;;;;;5051755;28;20526;-44
2023/04/11 03:07:53;;;;;;;10.67;9.30;;;12.50;87.30;;;;;;5051907;28;20477;-45
2023/04/11 03:10:20;;;;;;;10.00;8.00;;;12.40;87.20;;;;;;5050994;28;20451;-43
2023/04/11 03:12:46;;;;;;;11.53;8.43;;;12.20;87.00;;;;;;5050981;28;20977;-43
2023/04/11 03:15:14;;;;;;;10.47;9.37;;;12.30;87.10;;;;;;5052311;28;20450;-45
2023/04/11 03:17:40;;;;;;;8.83;7.93;;;12.20;86.90;;;;;;5053087;28;20786;-43
2023/04/11 03:20:12;;;;;;;10.17;8.73;;;12.30;87.20;;;;;;5050781;28;20457;-43
2023/04/11 03:22:41;;;;;;;8.60;7.70;;;12.40;87.20;;;;;;5051045;28;20561;-43
2023/04/11 03:25:09;;;;;;;9.10;8.13;;;12.30;87.20;;;;;;5054180;28;20872;-44
2023/04/11 03:27:36;;;;;;;9.13;8.23;;;12.40;87.40;;;;;;5056978;28;20453;-44
2023/04/11 03:30:05;;;;;;;9.13;8.23;;;12.20;87.10;;;;;;5056511;28;20445;-44
2023/04/11 03:32:40;;;;;;;11.20;8.53;;;12.60;87.60;;;;;;5058748;28;20460;-45
2023/04/11 03:35:07;;;;;;;10.53;9.50;;;12.30;87.30;;;;;;5057303;28;20464;-43
2023/04/11 03:37:35;;;;;;;8.90;8.00;;;12.30;87.40;;;;;;5056119;28;20481;-41
2023/04/11 03:40:07;;;;;;;9.47;8.40;;;11.70;86.70;;;;;;5059569;28;20454;-45
2023/04/11 03:42:34;;;;;;;9.10;8.30;;;12.20;87.30;;;;;;5055247;28;20844;-46
2023/04/11 03:45:03;;;;;;;9.20;7.97;;;12.20;87.30;;;;;;5054975;28;20715;-44
2023/04/11 03:47:29;;;;;;;9.53;8.53;;;12.60;87.80;;;;;;5054949;28;20457;-45
2023/04/11 03:49:57;;;;;;;10.43;8.80;;;12.80;88.10;;;;;;5054384;28;20492;-42
2023/04/11 03:52:24;;;;;;;9.77;8.77;;;12.30;87.60;;;;;;5054788;28;20522;-46
2023/04/11 03:54:51;;;;;;;8.70;7.80;;;12.40;87.80;;;;;;5056178;28;20440;-44
2023/04/11 03:57:19;;;;;;;9.83;8.83;;;12.70;88.20;;;;;;5054926;28;20428;-44
2023/04/11 03:59:47;;;;;;;8.77;7.93;;;12.20;87.80;;;;;;5055619;28;20411;-45
2023/04/11 04:02:15;;;;;;;10.63;9.10;;;12.60;89.00;;;;;;5054520;28;20479;-44
2023/04/11 04:04:53;;;;;;;12.93;9.33;;;12.60;90.00;;;;;;5055066;28;20465;-43
2023/04/11 04:07:24;;;;;;;9.10;8.03;;;12.40;90.10;;;;;;5054715;28;20454;-45
2023/04/11 04:09:55;;;;;;;11.47;8.63;;;12.70;91.00;;;;;;5054292;28;20449;-44
2023/04/11 04:12:24;;;;;;;10.83;9.53;;;12.40;91.10;;;;;;5054758;28;20473;-44
2023/04/11 04:15:13;;;;;;;10.67;9.17;;;12.20;91.60;;;;;;5056350;28;20477;-44
2023/04/11 04:17:41;;;;;;;10.73;9.63;;;12.50;91.80;;;;;;5056128;28;20471;-44
2023/04/11 04:20:12;;;;;;;9.27;8.03;;;12.50;92.00;;;;;;5056049;28;20455;-43
2023/04/11 04:22:41;;;;;;;10.53;9.47;;;12.40;92.00;;;;;;5055393;28;20460;-46
2023/04/11 04:25:11;;;;;;;11.23;9.77;;;12.30;92.40;;;;;;5054708;28;20992;-43
2023/04/11 04:27:43;;;;;;;10.60;9.50;;;12.30;92.30;;;;;;5055366;28;20813;-43
2023/04/11 04:30:14;;;;;;;12.03;10.70;;;11.90;92.30;;;;;;5054445;28;20477;-43
2023/04/11 04:32:58;;;;;;;10.80;9.70;;;12.40;92.70;;;;;;5055399;28;20463;-43
2023/04/11 04:35:26;;;;;;;14.30;9.97;;;12.70;93.20;;;;;;5056278;28;20567;-44
2023/04/11 04:37:54;;;;;;;9.50;8.60;;;12.60;93.20;;;;;;5056693;28;20492;-45
2023/04/11 04:40:40;;;;;;;10.60;9.30;;;12.80;93.80;;;;;;5057122;28;20502;-44
2023/04/11 04:43:17;;;;;;;10.57;9.47;;;12.20;93.90;;;;;;5057772;28;20489;-44
2023/04/11 04:45:56;;;;;;;10.70;9.30;;;12.30;94.50;;;;;;5058247;28;20480;-44
2023/04/11 04:48:27;;;;;;;11.77;10.10;;;12.10;95.00;;;;;;5057001;28;21063;-44
2023/04/11 04:50:53;;;;;;;11.67;9.67;;;12.40;95.60;;;;;;5056568;28;20446;-44
2023/04/11 04:53:20;;;;;;;12.47;9.30;;;12.10;96.40;;;;;;5057826;28;20443;-45
2023/04/11 04:55:52;;;;;;;11.20;9.73;;;12.00;96.60;;;;;;5056838;28;20984;-44
2023/04/11 04:58:21;;;;;;;12.40;9.63;;;11.90;97.00;;;;;;5056687;28;20443;-44
2023/04/11 05:00:54;;;;;;;13.63;11.57;;;11.70;97.30;;;;;;5053740;28;20808;-44
2023/04/11 05:03:23;;;;;;;12.00;8.93;;;11.80;98.40;;;;;;5053847;28;20573;-43
2023/04/11 05:05:51;;;;;;;12.37;10.10;;;12.10;99.50;;;;;;5053545;28;20473;-44
2023/04/11 05:08:20;;;;;;;12.77;9.60;;;12.10;99.70;;;;;;5053105;28;20467;-45
2023/04/11 05:10:47;;;;;;;12.30;9.40;;;12.20;99.90;;;;;;5053710;28;20550;-45
2023/04/11 05:13:14;;;;;;;11.43;10.33;;;11.10;99.90;;;;;;5053121;28;20449;-43
2023/04/11 05:15:48;;;;;;;12.97;10.50;;;12.00;99.90;;;;;;5053151;28;20449;-45
2023/04/11 05:18:15;;;;;;;11.80;10.00;;;11.60;99.90;;;;;;5053231;28;20502;-41
2023/04/11 05:20:42;;;;;;;10.80;9.20;;;12.00;99.90;;;;;;5053817;28;20449;-43
2023/04/11 05:23:13;;;;;;;12.43;10.47;;;12.20;99.90;;;;;;5053975;28;20458;-44
2023/04/11 05:25:40;;;;;;;11.23;8.43;;;11.80;99.90;;;;;;5053124;28;20450;-44
2023/04/11 05:28:10;;;;;;;10.13;9.13;;;12.10;99.90;;;;;;5052815;28;20448;-45
2023/04/11 05:30:37;;;;;;;10.33;9.23;;;12.30;99.90;;;;;;5054598;28;20448;-43
2023/04/11 05:33:05;;;;;;;12.07;10.87;;;11.90;99.90;;;;;;5054456;28;21017;-44
2023/04/11 05:35:32;;;;;;;13.40;9.67;;;12.30;99.90;;;;;;5053033;28;20484;-45
2023/04/11 05:37:59;;;;;;;11.03;9.73;;;12.00;99.90;;;;;;5052753;28;20457;-43
2023/04/11 05:40:25;;;;;;;10.33;9.33;;;12.10;99.90;;;;;;5052586;28;20491;-44
2023/04/11 05:42:52;;;;;;;16.50;10.33;;;11.90;99.90;;;;;;5052702;28;20482;-47
2023/04/11 05:45:19;;;;;;;16.10;10.80;;;11.60;99.90;;;;;;5053974;28;20453;-44
2023/04/11 05:47:45;;;;;;;10.77;9.20;;;12.00;99.90;;;;;;5052623;28;20966;-43
2023/04/11 05:50:14;;;;;;;11.70;9.60;;;12.00;99.90;;;;;;5053663;28;20448;-44
2023/04/11 05:52:41;;;;;;;10.03;9.00;;;12.20;99.90;;;;;;5052814;28;20436;-45
2023/04/11 05:55:09;;;;;;;12.07;9.97;;;11.60;99.90;;;;;;5052151;28;20535;-43
2023/04/11 05:57:36;;;;;;;11.53;9.70;;;11.60;99.90;;;;;;5053612;28;20428;-44
2023/04/11 06:00:11;;;;;;;11.43;10.27;;;11.80;99.90;;;;;;5053369;28;20791;-47
2023/04/11 06:02:39;;;;;;;14.30;11.07;;;11.80;99.90;;;;;;5053083;28;20718;-43
2023/04/11 06:05:07;;;;;;;12.93;9.93;;;12.00;99.90;;;;;;5053752;28;20467;-44
2023/04/11 06:07:35;;;;;;;11.53;9.53;;;11.80;99.90;;;;;;5054720;28;20407;-45
2023/04/11 06:10:01;;;;;;;12.77;10.87;;;12.00;99.90;;;;;;5054443;28;20431;-45
2023/04/11 06:12:28;;;;;;;13.23;10.33;;;11.40;99.90;;;;;;5055220;28;20790;-44
2023/04/11 06:14:55;;;;;;;10.37;9.27;;;11.90;99.90;;;;;;5055520;28;20448;-44
2023/04/11 06:17:21;;;;;;;11.57;10.37;;;11.60;99.90;;;;;;5054846;28;20457;-45
2023/04/11 06:19:48;;;;;;;14.07;10.23;;;11.60;99.90;;;;;;5056299;28;20480;-44
2023/04/11 06:22:15;;;;;;;10.33;9.23;;;11.70;99.90;;;;;;5053270;28;20467;-44
2023/04/11 06:24:44;;;;;;;13.73;9.90;;;11.40;99.90;;;;;;5054583;28;20460;-45
2023/04/11 06:27:11;;;;;;;11.50;9.53;;;11.80;99.90;;;;;;5056423;28;20445;-43
2023/04/11 06:29:37;;;;;;;10.97;9.40;;;12.00;99.90;;;;;;5056368;28;20439;-47
2023/04/11 06:32:04;;;;;;;12.07;9.77;;;11.80;99.90;;;;;;5057369;28;20433;-43
2023/04/11 06:34:31;;;;;;;11.77;10.20;;;11.90;99.90;;;;;;5054678;28;20454;-43
2023/04/11 06:36:58;;;;;;;12.67;10.10;;;12.00;99.90;;;;;;5056570;28;20437;-44
2023/04/11 06:39:25;;;;;;;12.60;9.93;;;11.80;99.90;;;;;;5053603;28;20437;-43
2023/04/11 06:41:53;;;;;;;11.37;10.20;;;12.10;99.90;;;;;;5053625;28;20508;-46
2023/04/11 06:44:25;;;;;;;13.30;10.47;;;11.50;99.90;;;;;;5052989;28;20453;-45
2023/04/11 06:46:51;;;;;;;14.10;11.10;;;12.20;99.90;;;;;;5053999;28;20461;-45
2023/04/11 06:49:18;;;;;;;11.00;9.90;;;11.60;99.90;;;;;;5053748;28;20440;-45
2023/04/11 06:51:48;;;;;;;12.50;10.70;;;12.20;99.90;;;;;;5053861;28;20891;-44
2023/04/11 06:54:14;;;;;;;13.03;10.00;;;12.20;99.90;;;;;;5053009;28;20524;-46
2023/04/11 06:56:41;;;;;;;22.30;17.17;;;12.40;99.90;;;;;;5053230;28;20476;-44
2023/04/11 06:59:09;;;;;;;12.40;11.10;;;12.30;99.90;;;;;;5052433;28;20792;-43
2023/04/11 07:01:38;;;;;;;13.23;11.50;;;11.80;99.90;;;;;;5052566;28;20440;-45
2023/04/11 07:04:04;;;;;;;15.63;10.97;;;12.30;99.90;;;;;;5052860;28;20486;-46
2023/04/11 07:06:31;;;;;;;12.27;10.77;;;12.30;99.90;;;;;;5052620;28;20423;-43
2023/04/11 07:08:59;;;;;;;14.07;11.17;;;11.90;99.90;;;;;;5050782;28;20856;-44
2023/04/11 07:11:26;;;;;;;12.60;9.97;;;12.10;99.90;;;;;;5052638;28;20473;-48
2023/04/11 07:13:54;;;;;;;13.67;10.43;;;12.40;99.90;;;;;;5052097;28;20437;-43
2023/04/11 07:16:22;;;;;;;12.80;10.00;;;12.50;99.90;;;;;;5052223;28;20550;-45
2023/04/11 07:18:49;;;;;;;11.27;10.00;;;12.50;99.90;;;;;;5051700;28;20467;-45
2023/04/11 07:21:16;;;;;;;12.93;10.70;;;12.40;99.90;;;;;;5052055;28;20447;-43
2023/04/11 07:23:43;;;;;;;12.67;10.20;;;12.20;99.90;;;;;;5052508;28;20460;-44
2023/04/11 07:26:10;;;;;;;12.17;10.20;;;12.20;99.90;;;;;;5051983;28;20462;-43
2023/04/11 07:28:39;;;;;;;15.60;11.00;;;12.10;99.90;;;;;;5051589;28;20445;-44
2023/04/11 07:31:07;;;;;;;15.40;10.90;;;12.50;99.90;;;;;;5051845;28;20440;-44
2023/04/11 07:33:36;;;;;;;11.43;10.33;;;12.50;99.90;;;;;;5051902;28;20484;-44
2023/04/11 07:36:03;;;;;;;12.10;9.00;;;12.50;99.90;;;;;;5052038;28;20466;-44
2023/04/11 07:38:29;;;;;;;13.77;10.63;;;12.60;99.90;;;;;;5051586;28;20440;-45
2023/04/11 07:40:57;;;;;;;11.47;9.53;;;12.60;99.90;;;;;;5051973;28;20437;-44
2023/04/11 07:43:24;;;;;;;12.07;10.00;;;12.70;99.90;;;;;;5051910;28;20477;-44
2023/04/11 07:45:51;;;;;;;15.70;10.80;;;12.40;99.90;;;;;;5051726;28;20514;-44
2023/04/11 07:48:18;;;;;;;11.57;9.83;;;12.30;99.90;;;;;;5051548;28;20441;-45
2023/04/11 07:50:45;;;;;;;11.80;9.97;;;12.60;99.90;;;;;;5052003;28;20437;-43
2023/04/11 07:53:12;;;;;;;9.80;8.73;;;12.80;99.90;;;;;;5050605;28;20450;-44
2023/04/11 07:55:40;;;;;;;12.40;10.17;;;13.10;99.90;;;;;;5060597;22;20500;-45
2023/04/11 07:58:07;;;;;;;14.80;10.13;;;13.20;99.90;;;;;;5031995;28;20791;-46
2023/04/11 08:00:34;;;;;;;11.17;9.73;;;13.10;99.90;;;;;;5031821;28;20442;-47
2023/04/11 08:03:03;;;;;;;11.57;9.60;;;12.90;99.90;;;;;;5031841;28;20501;-46
2023/04/11 08:05:30;;;;;;;12.10;8.43;;;13.40;99.90;;;;;;5031597;28;20836;-47
2023/04/11 08:07:58;;;;;;;13.97;9.87;;;12.80;99.90;;;;;;5031666;28;20445;-45
2023/04/11 08:10:25;;;;;;;12.13;8.60;;;13.40;99.90;;;;;;5031303;28;20471;-45
2023/04/11 08:12:52;;;;;;;11.40;9.80;;;12.90;99.90;;;;;;5031698;28;20437;-47
2023/04/11 08:15:19;;;;;;;12.73;9.17;;;13.00;99.90;;;;;;5031584;28;20490;-46
2023/04/11 08:17:48;;;;;;;11.03;8.03;;;12.90;99.90;;;;;;5031701;28;20438;-46
2023/04/11 08:20:15;;;;;;;10.07;7.93;;;12.80;99.90;;;;;;5031152;28;20522;-46
2023/04/11 08:22:45;;;;;;;10.90;8.10;;;12.80;99.90;;;;;;5029791;28;20459;-46
2023/04/11 08:25:15;;;;;;;9.57;8.57;;;13.20;99.90;;;;;;5031843;28;20432;-47
2023/04/11 08:27:41;;;;;;;11.33;8.10;;;12.10;99.90;;;;;;5035053;28;20507;-45
2023/04/11 08:30:09;;;;;;;7.40;6.30;;;13.00;99.90;;;;;;5034709;28;20476;-47
2023/04/11 08:32:36;;;;;;;6.37;5.33;;;12.40;99.90;;;;;;5035045;28;20438;-46
2023/04/11 08:35:06;;;;;;;9.57;5.60;;;12.40;99.90;;;;;;5035110;28;20872;-46
2023/04/11 08:37:32;;;;;;;8.00;5.23;;;12.10;99.90;;;;;;5034947;28;20433;-47
2023/04/11 08:39:59;;;;;;;10.83;5.57;;;12.20;99.90;;;;;;5034648;28;20413;-46
2023/04/11 08:42:46;;;;;;;8.43;6.57;;;12.20;99.90;;;;;;5034884;28;20403;-46
2023/04/11 08:45:13;;;;;;;10.00;5.80;;;12.50;99.90;;;;;;5034422;28;20466;-46
2023/04/11 08:47:40;;;;;;;8.40;5.30;;;12.20;99.90;;;;;;5034894;28;20881;-45
2023/04/11 08:50:08;;;;;;;9.30;4.67;;;12.40;99.90;;;;;;5033396;28;20458;-47
2023/04/11 08:52:39;;;;;;;7.50;4.60;;;12.40;99.90;;;;;;5035075;28;20445;-46
2023/04/11 08:55:07;;;;;;;8.10;4.13;;;12.40;99.90;;;;;;5033358;28;20509;-46
2023/04/11 08:57:36;;;;;;;7.67;4.47;;;12.70;99.90;;;;;;5033540;28;20524;-47
2023/04/11 09:00:13;;;;;;;10.77;4.80;;;12.60;99.90;;;;;;5034323;28;20444;-46
2023/04/11 09:02:56;;;;;;;9.37;4.83;;;12.60;99.90;;;;;;5035149;28;20476;-45
2023/04/11 09:05:28;;;;;;;7.57;4.30;;;12.50;99.90;;;;;;5033226;28;20484;-46
2023/04/11 09:07:56;;;;;;;6.97;4.27;;;12.60;99.90;;;;;;5034833;28;20800;-46
2023/04/11 09:10:24;;;;;;;7.13;4.70;;;12.30;99.90;;;;;;5033395;28;20450;-46
2023/04/11 09:12:51;;;;;;;6.90;4.30;;;12.80;99.90;;;;;;5034735;28;20587;-45
2023/04/11 09:15:21;;;;;;;7.53;3.53;;;12.80;99.90;;;;;;5034671;28;20466;-45
2023/04/11 09:17:48;;;;;;;9.33;3.90;;;12.90;99.90;;;;;;5035554;28;20449;-46
2023/04/11 09:20:19;;;;;;;8.30;3.50;;;13.10;99.90;;;;;;5035083;28;20438;-46
2023/04/11 09:22:49;;;;;;;6.67;3.47;;;13.20;99.90;;;;;;5033301;28;20985;-46
2023/04/11 09:25:16;;;;;;;8.93;3.33;;;13.30;99.90;;;;;;5034280;28;20525;-47
2023/04/11 09:27:43;;;;;;;5.47;3.30;;;13.50;99.90;;;;;;5033219;28;20493;-46
2023/04/11 09:30:22;;;;;;;7.93;3.27;;;13.70;99.90;;;;;;5034216;28;20438;-46
2023/04/11 09:32:52;;;;;;;10.73;3.70;;;13.90;99.90;;;;;;5032938;28;20793;-45
2023/04/11 09:35:21;;;;;;;5.33;3.30;;;14.00;99.90;;;;;;5034203;28;20537;-46
2023/04/11 09:37:50;;;;;;;8.17;3.70;;;14.00;99.90;;;;;;5033864;28;20936;-47
2023/04/11 09:40:19;;;;;;;7.00;3.30;;;14.00;99.90;;;;;;5033782;28;20526;-46
2023/04/11 09:42:47;;;;;;;9.93;3.70;;;14.50;99.90;;;;;;5034285;28;20436;-47
2023/04/11 09:45:20;;;;;;;7.00;3.90;;;14.40;99.90;;;;;;5033824;28;20491;-45
2023/04/11 09:47:49;;;;;;;8.90;4.03;;;14.40;99.90;;;;;;5034060;28;20440;-45
2023/04/11 09:50:16;;;;;;;11.80;3.47;;;14.60;99.90;;;;;;5033997;28;20890;-46
2023/04/11 09:52:45;;;;;;;8.87;3.10;;;14.50;99.90;;;;;;5033532;28;20439;-47
2023/04/11 09:55:13;;;;;;;10.40;3.20;;;14.40;99.90;;;;;;5033490;28;20452;-46
2023/04/11 09:57:44;;;;;;;6.80;3.30;;;14.40;99.90;;;;;;5033543;28;20913;-46
2023/04/11 10:00:15;;;;;;;10.60;2.97;;;14.90;99.90;;;;;;5033194;28;20452;-46
2023/04/11 10:02:44;;;;;;;8.50;3.30;;;14.70;99.90;;;;;;5032233;28;20455;-47
2023/04/11 10:05:13;;;;;;;6.00;3.30;;;15.00;99.90;;;;;;5033433;28;20479;-45
2023/04/11 10:07:46;;;;;;;10.33;4.07;;;14.90;99.90;;;;;;5033465;28;20435;-46
2023/04/11 10:10:18;;;;;;;7.50;3.00;;;14.60;99.90;;;;;;5033011;28;20432;-46
2023/04/11 10:12:45;;;;;;;5.03;2.40;;;15.00;99.90;;;;;;5032051;28;20474;-46
2023/04/11 10:15:13;;;;;;;4.10;2.07;;;15.30;99.90;;;;;;5032984;28;20967;-45
2023/04/11 10:17:40;;;;;;;9.50;2.77;;;15.10;99.90;;;;;;5031943;28;20538;-45
2023/04/11 10:20:47;;;;;;;10.73;3.10;;;15.00;99.80;;;;;;5032956;28;20435;-46
2023/04/11 10:23:15;;;;;;;7.17;2.73;;;15.10;99.30;;;;;;5026474;28;20990;-46
2023/04/11 10:25:53;;;;;;;6.37;3.10;;;14.90;99.00;;;;;;5032845;28;20460;-46
2023/04/11 10:28:36;;;;;;;6.13;2.60;;;15.10;98.80;;;;;;5032442;28;20448;-46
2023/04/11 10:31:06;;;;;;;5.60;2.77;;;15.20;98.60;;;;;;5033073;28;20448;-47
2023/04/11 10:33:34;;;;;;;4.63;2.10;;;15.20;98.30;;;;;;5032999;28;20410;-46
2023/04/11 10:36:04;;;;;;;6.83;1.90;;;15.20;98.10;;;;;;5033135;28;20460;-46
2023/04/11 10:38:48;;;;;;;4.03;2.10;;;15.30;97.60;;;;;;5035065;28;20534;-46
2023/04/11 10:41:16;;;;;;;5.63;2.23;;;14.90;96.90;;;;;;5033358;28;20434;-46
2023/04/11 10:43:43;;;;;;;7.27;2.80;;;15.10;97.00;;;;;;5032899;28;20476;-46
2023/04/11 10:46:18;;;;;;;6.10;2.70;;;15.50;97.00;;;;;;5032686;28;20466;-46
2023/04/11 10:48:56;;;;;;;5.63;2.43;;;15.30;96.50;;;;;;5031905;28;20488;-46
2023/04/11 10:51:24;;;;;;;10.07;2.50;;;15.50;96.40;;;;;;5032640;28;20431;-46
2023/04/11 10:53:54;;;;;;;7.97;2.50;;;15.20;96.00;;;;;;5032717;28;20433;-46
2023/04/11 10:56:58;;;;;;;5.43;1.93;;;15.60;96.00;;;;;;5032667;28;20536;-46
2023/04/11 10:59:57;;;;;;;7.47;1.80;;;15.30;95.50;;;;;;5032457;28;20450;-46
2023/04/11 11:02:37;;;;;;;8.70;2.03;;;15.50;95.50;;;;;;5031627;28;20513;-47
2023/04/11 11:05:19;;;;;;;3.83;1.90;;;15.30;95.20;;;;;;5033284;28;20948;-46
2023/04/11 11:07:51;;;;;;;6.60;2.20;;;15.60;95.20;;;;;;5033547;28;20423;-46
2023/04/11 11:10:38;;;;;;;5.43;2.57;;;15.60;94.70;;;;;;5031786;28;20589;-45
2023/04/11 11:13:05;;;;;;;6.73;2.20;;;15.60;94.40;;;;;;5032963;28;20506;-46
2023/04/11 11:15:35;;;;;;;6.87;2.80;;;15.60;94.30;;;;;;5032835;28;20447;-46
2023/04/11 11:18:02;;;;;;;4.67;2.27;;;15.40;94.40;;;;;;5032881;28;20980;-45
2023/04/11 11:20:29;;;;;;;6.73;3.03;;;15.80;94.60;;;;;;5032202;28;20416;-46
2023/04/11 11:23:00;;;;;;;4.93;1.90;;;15.60;94.80;;;;;;5032135;28;20534;-47
2023/04/11 11:25:27;;;;;;;4.23;1.90;;;15.20;94.70;;;;;;5032240;28;20855;-46
2023/04/11 11:28:06;;;;;;;5.77;2.10;;;15.60;94.90;;;;;;5030839;28;20447;-46
2023/04/11 11:30:34;;;;;;;3.83;1.97;;;15.20;94.20;;;;;;5032398;28;20853;-46
2023/04/11 11:33:16;;;;;;;6.80;2.03;;;15.80;94.40;;;;;;5032905;28;20436;-46
2023/04/11 11:35:45;;;;;;;4.87;1.87;;;15.80;94.10;;;;;;5032838;28;20818;-47
2023/04/11 11:38:12;;;;;;;4.00;2.33;;;15.60;94.00;;;;;;5033013;28;20885;-47
2023/04/11 11:40:39;;;;;;;6.37;2.27;;;16.10;93.50;;;;;;5034133;28;20451;-46
2023/04/11 11:43:07;;;;;;;3.07;1.60;;;15.90;93.50;;;;;;5032125;28;20454;-46
2023/04/11 11:45:34;;;;;;;4.67;1.90;;;15.90;93.50;;;;;;5032694;28;20559;-47
2023/04/11 11:48:00;;;;;;;5.00;1.50;;;16.10;93.30;;;;;;5033240;28;20528;-47
2023/04/11 11:50:29;;;;;;;4.33;1.50;;;15.50;92.40;;;;;;5032856;28;20438;-47
2023/04/11 11:53:12;;;;;;;3.80;1.93;;;16.30;92.40;;;;;;5033399;28;20436;-48
2023/04/11 11:55:39;;;;;;;5.60;1.90;;;16.40;92.20;;;;;;5031768;28;20455;-47
2023/04/11 11:58:08;;;;;;;2.47;1.50;;;16.30;92.20;;;;;;5034863;28;20470;-45
2023/04/11 12:00:37;;;;;;;6.50;2.10;;;16.10;92.00;;;;;;5035457;28;20516;-46
2023/04/11 12:03:05;;;;;;;4.70;1.73;;;16.50;92.20;;;;;;5035871;28;20444;-46
2023/04/11 12:05:34;;;;;;;4.13;1.70;;;16.50;92.10;;;;;;5037435;28;20454;-49
2023/04/11 12:08:03;;;;;;;2.97;2.10;;;16.30;92.00;;;;;;5034097;28;20494;-48
2023/04/11 12:10:37;;;;;;;6.90;2.87;;;16.20;91.90;;;;;;5035141;28;20421;-47
2023/04/11 12:13:14;;;;;;;4.67;1.80;;;16.10;92.00;;;;;;5035177;28;20442;-47
2023/04/11 12:15:44;;;;;;;3.33;1.90;;;16.60;91.60;;;;;;5035524;28;20459;-47
2023/04/11 12:18:11;;;;;;;5.60;2.17;;;16.10;91.20;;;;;;5034622;28;20437;-48
2023/04/11 12:20:38;;;;;;;4.20;1.53;;;16.40;90.70;;;;;;5035255;28;20534;-47
2023/04/11 12:23:04;;;;;;;6.00;1.93;;;16.20;90.40;;;;;;5034955;28;20459;-48
2023/04/11 12:25:31;;;;;;;4.20;2.53;;;16.80;91.30;;;;;;5033467;28;20582;-48
2023/04/11 12:27:58;;;;;;;3.67;1.93;;;16.30;92.50;;;;;;5033880;28;20451;-48
2023/04/11 12:30:26;;;;;;;3.53;1.70;;;16.10;93.80;;;;;;5034662;28;20988;-49
2023/04/11 12:32:53;;;;;;;2.60;1.40;;;16.30;94.40;;;;;;5034460;28;20515;-48
2023/04/11 12:35:19;;;;;;;3.73;1.70;;;16.00;94.50;;;;;;5034641;28;20490;-48
2023/04/11 12:37:46;;;;;;;3.23;1.77;;;15.50;93.90;;;;;;5034767;28;20447;-48
2023/04/11 12:40:14;;;;;;;2.50;1.70;;;15.40;93.30;;;;;;5034959;28;20429;-49
2023/04/11 12:42:42;;;;;;;7.00;2.00;;;15.50;93.20;;;;;;5035279;28;20442;-48
2023/04/11 12:45:09;;;;;;;2.70;1.70;;;15.20;93.30;;;;;;5034228;28;20883;-48
2023/04/11 12:47:37;;;;;;;2.50;1.60;;;15.00;93.60;;;;;;5034365;28;20447;-49
2023/04/11 12:50:06;;;;;;;2.80;1.80;;;14.60;94.20;;;;;;5034049;28;20432;-48